Kelso, Missouri
Current Conditions -  °F | °C
As of 4:53 AM on Friday 19 Dec 2014 (Local Time) from KCGI Reporting Station
Overcast Overcast  
Wind Chill: 27°   Ceiling: 3400
Heat Index: 33°   Visibility: 8mi
Dew Point: 29°   Wind: 7mph
Humidity: 85%   Direction: 50°NE
Pressure: 30.25"   Gusts: NA
Location:  37.19°N, 89.55°W
Report Text: KCGI 191053Z AUTO 05006KT 8SM OVC034 01/M02 A3025 RMK AO2 SLP247 T00061017 TSNO
Loading
Personal Weather Stations






























Interactive Weather Map New forecast layout! Learn more

10-Day Weather Forecast

Advertisements
Track Severe Weather on mobile